• LFSB

    METAR de LFSB (émis le 2020/09/28 07:00 UTC):
    LFSB 280700Z 14006KT 9999 FEW025 SCT040 09/05 Q1011 NOSIG

    TAF de LFSB (émis le 2020/09/28 06:21 UTC):
    LFSB 280500Z 2806/2906 VRB02KT 9999 BKN035 BECMG 2816/2818 -RA TEMPO 2821/2906 4000 RA BKN018 BECMG 2823/2901 25010KT
  • LFSX

    METAR de LFSX (émis le 2020/09/28 07:00 UTC):
    LFSX 280700Z AUTO 13004KT 8000 OVC009 09/08 Q1010

    TAF de LFSX (émis le 2020/09/28 05:06 UTC):
    AMD AMD LFSX 280500Z 2805/2903 13005KT 9999 BKN009 TEMPO 2805/2812 3000 -DZ BKN004 BECMG 2811/2813 22010KT BECMG 2814/2816 3000 -RADZ TEMPO 2815/2903 BKN004
  • LFSD

    METAR de LFSD (émis le 2020/09/28 07:00 UTC):
    LFSD 280700Z AUTO VRB02KT 9999 BKN003 OVC020 10/10 Q1010

    TAF de LFSD (émis le 2015/06/01 00:11 UTC):
    LFSD 010600Z 0100/0124 CNL
  • LFGJ

    METAR de LFGJ (émis le 2020/09/28 07:00 UTC):
    LFGJ 280700Z AUTO 20006KT 9999 OVC004 10/09 Q1010 TEMPO 3000 -RADZ

    TAF COURT de LFGJ
    (émis le 2020/09/28 06:21 UTC):
    TAF LFGJ 280500Z 2806/2815 22005KT 9999 OVC012 TEMPO 2806/2809 3000 -RADZ OVC003 BECMG 2809/2811 BKN020 TEMPO 2813/2815 BKN008
  • LFJL

    METAR de LFJL (émis le 2020/09/28 07:00 UTC):
    LFJL 280700Z AUTO VRB02KT 9999 BKN025 OVC130 09/07 Q1010 TEMPO 4000 BR

    TAF de LFJL (émis le 2020/09/28 06:21 UTC):
    LFJL 280500Z 2806/2906 20005KT 9999 SCT030 PROB40 TEMPO 2806/2808 4000 BR BECMG 2812/2814 -RA TEMPO 2814/2817 4000 RA BECMG 2817/2819 OVC012 TEMPO 2819/2906 3000 RA OVC003
  • LFST

    METAR de LFST (émis le 2020/09/28 07:00 UTC):
    LFST 280700Z AUTO VRB02KT 9999 SCT002 07/07 Q1011 TEMPO 0800 FG VV///

    TAF de LFST (émis le 2020/09/28 06:58 UTC):
    AMD LFST 280554Z 2806/2906 VRB02KT CAVOK PROB40 TEMPO 2806/2809 3000 BR BKN002 PROB30 TEMPO 2806/2809 0800 FG VV/// BECMG 2815/2817 -RA BECMG 2819/2821 18010KT TEMPO 2821/2903 3000 RA BKN006